Songkhla Airport
VTSH : now visible

Airfield :











YOU CAN JOIN US ON...

 
LOGIN :

Register | Disclaimer

   EN    FR    IT 

 









Legend :    VFR   Marginal VFR   IFR   Intensive IFR   Very Intensive IFR
Visi :
Ceiling :
>= 8 km
>= 3000ft
5 to 8 km
1000 to 3000 ft
1500m to 5 km
500 to 1000 ft
800 to 1500m
200 to 500 ft
< 800m
< 200 ft
Symbols :   Thunderstorms  Fog  Heavy snow  Heavy precipitations  Wind > 20 kt






- Airport Elevation : 12 ft
- IATA code : SGZ


VTSH - Songkhla

EXPIRED METARs :
  • 191100Z 09004KT 9999 FEW018CB SCT020 BKN100 28/24 Q1008 NOSIG

TAF TAF VTSH
Valid from the 19 at 12:00 until the 20 at 12:00 UTC


191100Z 1912/2012 08008KT 9999 FEW020 BKN100
TEMPO 1912/1918 08010G20KT 3000 TSRA FEW016CB SCT018 BKN100
TEMPO 1918/1924 3000 RA SCT015 BKN100
TEMPO 2000/2006 3000 RA SCT015 BKN100



MET'MAP, your aeronautical weather chart ! - Copyright ORBIFLY December 2007 - Disclaimer

ORBIFLY MET'MAP TEAM :

Programming & Development : Alexandra Zaïnal
Concept & Development : Baudouin d'Aumeries
Co-Development & Prog : Marc-Olivier Méhu
Technical & hardware support : Manuel Goepfert

Contact : metmap@orbifly.com




SOURCES & CREDITS :

   NOAA       Earth
Advisory